TimeMDT,TemperatureF,Dew PointF,Humidity,Sea Level PressureIn,VisibilityMPH,Wind Direction,Wind SpeedMPH,Gust SpeedMPH,PrecipitationIn,Events,Conditions,WindDirDegrees,DateUTC
12:17 AM,46.4,46.4,100,30.53,1.2,NE,3.5,-,N/A,,Mostly Cloudy,50,2013-09-12 06:17:00
12:36 AM,46.4,46.4,100,30.53,1.8,NE,3.5,-,N/A,,Overcast,50,2013-09-12 06:36:00
12:57 AM,46.4,46.4,100,30.53,2.0,NE,3.5,-,N/A,,Overcast,50,2013-09-12 06:57:00
1:17 AM,46.4,46.4,100,30.53,4.0,NE,4.6,-,N/A,,Mostly Cloudy,40,2013-09-12 07:17:00
1:37 AM,46.4,46.4,100,30.52,0.8,NE,4.6,-,N/A,,Overcast,50,2013-09-12 07:37:00
1:57 AM,46.4,46.4,100,30.53,1.0,NE,4.6,-,N/A,,Overcast,50,2013-09-12 07:57:00
2:16 AM,48.2,46.4,93,30.54,1.0,SE,3.5,-,N/A,,Overcast,130,2013-09-12 08:16:00
2:36 AM,48.2,46.4,93,30.53,0.2,Calm,Calm,-,N/A,Fog,Fog,0,2013-09-12 08:36:00
2:57 AM,46.4,46.4,100,30.53,0.5,NE,3.5,-,N/A,Fog,Fog,50,2013-09-12 08:57:00
3:17 AM,46.4,46.4,100,30.53,0.5,Calm,Calm,-,N/A,Fog,Fog,0,2013-09-12 09:17:00
3:37 AM,46.4,46.4,100,30.53,2.0,ENE,3.5,-,N/A,,Scattered Clouds,60,2013-09-12 09:37:00
3:57 AM,46.4,46.4,100,30.53,0.2,NE,3.5,-,N/A,Fog,Fog,50,2013-09-12 09:57:00
4:17 AM,46.4,46.4,100,30.53,0.2,ENE,3.5,-,N/A,Fog-Thunderstorm,Fog,70,2013-09-12 10:17:00
4:37 AM,46.4,46.4,100,30.53,0.2,Calm,Calm,-,N/A,Fog,Fog,0,2013-09-12 10:37:00
4:56 AM,46.4,46.4,100,30.53,10.0,Calm,Calm,-,N/A,,Scattered Clouds,0,2013-09-12 10:56:00
5:17 AM,46.4,46.4,100,30.53,2.5,Calm,Calm,-,N/A,,Clear,0,2013-09-12 11:17:00
5:37 AM,44.6,44.6,100,30.53,5.0,Calm,Calm,-,N/A,,Clear,0,2013-09-12 11:37:00
5:57 AM,46.4,46.4,100,30.53,7.0,Calm,Calm,-,N/A,,Mostly Cloudy,0,2013-09-12 11:57:00
6:16 AM,46.4,46.4,100,30.53,0.5,Calm,Calm,-,N/A,Fog,Fog,0,2013-09-12 12:16:00
6:37 AM,46.4,46.4,100,30.54,0.8,Calm,Calm,-,N/A,,Overcast,0,2013-09-12 12:37:00
6:57 AM,46.4,44.6,93,30.54,1.8,Calm,Calm,-,N/A,,Mostly Cloudy,0,2013-09-12 12:57:00
7:17 AM,44.6,44.6,100,30.54,0.8,Calm,Calm,-,N/A,,Mostly Cloudy,0,2013-09-12 13:17:00
7:36 AM,44.6,44.6,100,30.55,7.0,Calm,Calm,-,N/A,,Clear,0,2013-09-12 13:36:00
7:56 AM,46.4,44.6,93,30.55,7.0,Calm,Calm,-,N/A,,Clear,0,2013-09-12 13:56:00
8:17 AM,48.2,46.4,93,30.55,5.0,Calm,Calm,-,N/A,,Scattered Clouds,0,2013-09-12 14:17:00
8:37 AM,46.4,46.4,100,30.55,0.8,Calm,Calm,-,N/A,,Mist,0,2013-09-12 14:37:00
8:57 AM,48.2,46.4,93,30.56,4.0,Calm,Calm,-,N/A,,Clear,0,2013-09-12 14:57:00
9:17 AM,50.0,50.0,100,30.56,10.0,Calm,Calm,-,N/A,Thunderstorm,Clear,0,2013-09-12 15:17:00
9:37 AM,51.8,50.0,94,30.57,3.0,Calm,Calm,-,N/A,,Scattered Clouds,0,2013-09-12 15:37:00
9:57 AM,51.8,50.0,94,30.57,10.0,Calm,Calm,-,N/A,,Scattered Clouds,0,2013-09-12 15:57:00
10:17 AM,51.8,50.0,94,30.57,10.0,Calm,Calm,-,N/A,,Clear,0,2013-09-12 16:17:00
10:37 AM,53.6,50.0,88,30.57,10.0,Calm,Calm,-,N/A,,Scattered Clouds,0,2013-09-12 16:37:00
10:57 AM,53.6,50.0,88,30.57,10.0,Calm,Calm,-,N/A,,Mostly Cloudy,0,2013-09-12 16:57:00
11:17 AM,55.4,48.2,77,30.57,10.0,Calm,Calm,-,N/A,,Scattered Clouds,0,2013-09-12 17:17:00
11:37 AM,57.2,48.2,72,30.57,10.0,Calm,Calm,-,N/A,,Clear,0,2013-09-12 17:37:00
11:57 AM,59.0,46.4,63,30.57,10.0,Calm,Calm,-,N/A,,Scattered Clouds,0,2013-09-12 17:57:00
12:17 PM,57.2,42.8,59,30.57,10.0,Calm,Calm,-,N/A,,Mostly Cloudy,0,2013-09-12 18:17:00
12:37 PM,57.2,41.0,55,30.55,10.0,Calm,Calm,-,N/A,Thunderstorm,Mostly Cloudy,0,2013-09-12 18:37:00
12:57 PM,59.0,44.6,59,30.55,10.0,Calm,Calm,-,N/A,,Mostly Cloudy,0,2013-09-12 18:57:00
1:17 PM,59.0,44.6,59,30.54,10.0,Calm,Calm,-,N/A,,Mostly Cloudy,0,2013-09-12 19:17:00
1:36 PM,59.0,44.6,59,30.54,10.0,Calm,Calm,-,N/A,,Overcast,0,2013-09-12 19:36:00
1:57 PM,57.2,42.8,59,30.53,10.0,Calm,Calm,-,N/A,Rain-Thunderstorm,Light Thunderstorms and Rain,0,2013-09-12 19:57:00
2:17 PM,60.8,44.6,55,30.52,10.0,Calm,Calm,-,N/A,Thunderstorm,Unknown,0,2013-09-12 20:17:00
2:37 PM,59.0,44.6,59,30.52,10.0,Calm,Calm,-,N/A,,Mostly Cloudy,0,2013-09-12 20:37:00
2:57 PM,55.4,46.4,72,30.52,7.0,North,3.5,-,N/A,Rain-Thunderstorm,Light Thunderstorms and Rain,350,2013-09-12 20:57:00
3:17 PM,53.6,46.4,77,30.52,4.0,Calm,Calm,-,N/A,Rain-Thunderstorm,Heavy Thunderstorms and Rain,0,2013-09-12 21:17:00
3:37 PM,50.0,46.4,87,30.53,1.0,NNE,3.5,-,N/A,Rain-Thunderstorm,Heavy Thunderstorms and Rain,30,2013-09-12 21:37:00
3:57 PM,50.0,48.2,94,30.53,1.2,ENE,5.8,-,N/A,Rain-Thunderstorm,Rain,60,2013-09-12 21:57:00
4:17 PM,50.0,48.2,94,30.51,1.0,NE,3.5,-,N/A,,Drizzle,50,2013-09-12 22:17:00
4:36 PM,50.0,50.0,100,30.50,2.0,NE,3.5,-,N/A,,Overcast,40,2013-09-12 22:36:00
4:56 PM,51.8,50.0,94,30.49,10.0,NE,4.6,-,N/A,,Scattered Clouds,40,2013-09-12 22:56:00
5:16 PM,51.8,48.2,88,30.49,10.0,Calm,Calm,-,N/A,Thunderstorm,Clear,0,2013-09-12 23:16:00
5:37 PM,51.8,46.4,82,30.49,10.0,Calm,Calm,-,N/A,,Clear,0,2013-09-12 23:37:00
5:57 PM,50.0,46.4,87,30.49,10.0,ENE,4.6,-,N/A,,Clear,60,2013-09-12 23:57:00
6:17 PM,50.0,42.8,76,30.48,10.0,NNE,3.5,-,N/A,,Scattered Clouds,20,2013-09-13 00:17:00
6:37 PM,46.4,44.6,93,30.48,10.0,ENE,3.5,-,N/A,Thunderstorm,Clear,60,2013-09-13 00:37:00
6:57 PM,46.4,44.6,93,30.48,10.0,ENE,3.5,-,N/A,Thunderstorm,Thunderstorm,70,2013-09-13 00:57:00
7:17 PM,48.2,44.6,87,30.48,10.0,Calm,Calm,-,N/A,,Mostly Cloudy,0,2013-09-13 01:17:00
7:37 PM,46.4,44.6,93,30.48,10.0,Calm,Calm,-,N/A,Thunderstorm,Mostly Cloudy,0,2013-09-13 01:37:00
7:57 PM,46.4,44.6,93,30.49,10.0,ENE,3.5,-,N/A,,Overcast,60,2013-09-13 01:57:00
8:17 PM,46.4,46.4,100,30.50,7.0,ESE,3.5,-,N/A,Rain,Rain,120,2013-09-13 02:17:00
8:37 PM,46.4,46.4,100,30.51,2.5,SE,6.9,-,N/A,Rain-Thunderstorm,Thunderstorms and Rain,130,2013-09-13 02:37:00
8:57 PM,46.4,46.4,100,30.51,2.5,SE,5.8,-,N/A,Rain-Thunderstorm,Heavy Thunderstorms and Rain,130,2013-09-13 02:57:00
9:17 PM,46.4,46.4,100,30.51,2.5,SE,5.8,-,N/A,Rain,Heavy Rain,130,2013-09-13 03:17:00
9:37 PM,46.4,44.6,93,30.51,2.5,ESE,3.5,-,N/A,Rain,Rain,120,2013-09-13 03:37:00
9:57 PM,44.6,44.6,100,30.51,4.0,ESE,3.5,-,N/A,Rain,Rain,110,2013-09-13 03:57:00
10:17 PM,44.6,44.6,100,30.50,5.0,ESE,3.5,-,N/A,Rain,Rain,120,2013-09-13 04:17:00
10:37 PM,44.6,44.6,100,30.50,10.0,Calm,Calm,-,N/A,Rain,Rain,0,2013-09-13 04:37:00
10:57 PM,44.6,44.6,100,30.49,10.0,Calm,Calm,-,N/A,Rain,Light Rain,0,2013-09-13 04:57:00
11:17 PM,44.6,44.6,100,30.49,7.0,Calm,Calm,-,N/A,Rain,Light Rain,0,2013-09-13 05:17:00
11:37 PM,44.6,44.6,100,30.49,5.0,Calm,Calm,-,N/A,Rain,Rain,0,2013-09-13 05:37:00
11:57 PM,44.6,44.6,100,30.49,10.0,Calm,Calm,-,N/A,Rain,Light Rain,0,2013-09-13 05:57:00